createdAt,value
2023-05-13T00:01:31.668Z,96277.00
2023-05-13T00:05:36.362Z,96284.00
2023-05-13T00:09:42.580Z,96272.00
2023-05-13T00:13:48.728Z,96279.00
2023-05-13T00:17:54.214Z,96276.00
2023-05-13T00:21:59.402Z,96280.00
2023-05-13T00:26:18.668Z,96284.00
2023-05-13T00:30:24.118Z,96283.00
2023-05-13T00:34:30.257Z,96285.00
2023-05-13T00:38:33.822Z,96289.00
2023-05-13T00:42:38.273Z,96278.00
2023-05-13T00:46:41.286Z,96285.00
2023-05-13T00:50:44.902Z,96286.00
2023-05-13T00:54:48.051Z,96278.00
2023-05-13T00:58:53.756Z,96286.00
2023-05-13T01:03:04.220Z,96273.00
2023-05-13T01:07:15.318Z,96287.00
2023-05-13T01:11:27.183Z,96287.00
2023-05-13T01:15:33.007Z,96293.00
2023-05-13T01:19:43.138Z,96300.00
2023-05-13T01:23:49.772Z,96289.00
2023-05-13T01:27:53.632Z,96290.00
2023-05-13T01:31:59.732Z,96286.00
2023-05-13T01:36:03.092Z,96291.00
2023-05-13T01:40:24.405Z,96288.00
2023-05-13T01:44:35.136Z,96291.00
2023-05-13T01:48:40.040Z,96290.00
2023-05-13T01:52:46.217Z,96287.00
2023-05-13T01:56:52.949Z,96290.00
2023-05-13T02:00:56.306Z,96285.00
2023-05-13T02:05:02.132Z,96295.00
2023-05-13T02:09:05.585Z,96287.00
2023-05-13T02:13:12.934Z,96290.00
2023-05-13T02:17:16.977Z,96292.00
2023-05-13T02:21:20.394Z,96287.00
2023-05-13T02:25:27.580Z,96298.00
2023-05-13T02:29:31.994Z,96295.00
2023-05-13T02:33:35.489Z,96288.00
2023-05-13T02:37:39.154Z,96284.00
2023-05-13T02:41:44.552Z,96286.00
2023-05-13T02:45:54.441Z,96289.00
2023-05-13T02:49:58.178Z,96290.00
2023-05-13T02:54:01.179Z,96288.00
2023-05-13T02:58:04.785Z,96288.00
2023-05-13T03:02:09.553Z,96283.00
2023-05-13T03:06:15.392Z,96286.00
2023-05-13T03:10:19.620Z,96303.00
2023-05-13T03:14:24.651Z,96297.00
2023-05-13T03:18:31.636Z,96297.00
2023-05-13T03:22:34.837Z,96298.00
2023-05-13T03:26:38.107Z,96300.00
2023-05-13T03:30:41.389Z,96305.00
2023-05-13T03:34:46.957Z,96302.00
2023-05-13T03:38:56.973Z,96307.00
2023-05-13T03:43:02.433Z,96303.00
2023-05-13T03:47:05.998Z,96306.00
2023-05-13T03:51:10.539Z,96312.00
2023-05-13T03:55:17.273Z,96308.00
2023-05-13T03:59:20.281Z,96314.00
2023-05-13T04:03:23.640Z,96315.00
2023-05-13T04:07:28.548Z,96311.00
2023-05-13T04:11:33.838Z,96313.00
2023-05-13T04:15:36.868Z,96322.00
2023-05-13T04:19:39.887Z,96321.00
2023-05-13T04:23:44.320Z,96319.00
2023-05-13T04:27:54.768Z,96325.00
2023-05-13T04:31:57.813Z,96325.00
2023-05-13T04:36:00.912Z,96331.00
2023-05-13T04:40:06.643Z,96330.00
2023-05-13T04:44:11.289Z,96330.00
2023-05-13T04:48:14.401Z,96337.00
2023-05-13T04:52:17.617Z,96338.00
2023-05-13T04:56:22.632Z,96341.00
2023-05-13T05:00:26.070Z,96331.00
2023-05-13T05:04:29.316Z,96336.00
2023-05-13T05:08:32.606Z,96342.00
2023-05-13T05:12:39.296Z,96342.00
2023-05-13T05:16:44.399Z,96353.00
2023-05-13T05:20:49.241Z,96358.00
2023-05-13T05:24:52.240Z,96359.00
2023-05-13T05:28:59.642Z,96357.00
2023-05-13T05:33:09.369Z,96362.00
2023-05-13T05:37:12.586Z,96374.00
2023-05-13T05:41:15.631Z,96372.00
2023-05-13T05:45:21.898Z,96377.00
2023-05-13T05:49:25.306Z,96370.00
2023-05-13T05:53:31.805Z,96371.00
2023-05-13T05:57:34.895Z,96372.00
2023-05-13T06:01:39.370Z,96366.00
2023-05-13T06:05:44.595Z,96368.00
2023-05-13T06:09:48.048Z,96374.00
2023-05-13T06:13:51.430Z,96371.00
2023-05-13T06:17:56.246Z,96369.00
2023-05-13T06:22:00.160Z,96374.00
2023-05-13T06:26:03.898Z,96372.00
2023-05-13T06:30:13.484Z,96371.00
2023-05-13T06:34:18.160Z,96381.00
2023-05-13T06:38:23.351Z,96375.00
2023-05-13T06:42:28.189Z,96381.00
2023-05-13T06:46:31.251Z,96387.00
2023-05-13T06:50:36.886Z,96376.00
2023-05-13T06:54:40.285Z,96382.00
2023-05-13T06:58:45.328Z,96376.00
2023-05-13T07:02:48.413Z,96389.00
2023-05-13T07:06:57.120Z,96383.00
2023-05-13T07:11:00.177Z,96386.00
2023-05-13T07:15:03.154Z,96391.00
2023-05-13T07:19:06.645Z,96390.00
2023-05-13T07:23:12.146Z,96389.00
2023-05-13T07:27:15.698Z,96397.00
2023-05-13T07:31:20.533Z,96390.00
2023-05-13T07:35:30.057Z,96390.00
2023-05-13T07:39:34.525Z,96394.00
2023-05-13T07:43:39.498Z,96406.00
2023-05-13T07:47:44.497Z,96407.00
2023-05-13T07:51:54.033Z,96403.00
2023-05-13T07:55:58.537Z,96398.00
2023-05-13T08:00:01.841Z,96409.00
2023-05-13T08:04:08.400Z,96410.00
2023-05-13T08:08:11.919Z,96409.00
2023-05-13T08:12:16.405Z,96405.00
2023-05-13T08:16:19.449Z,96401.00
2023-05-13T08:20:29.636Z,96404.00
2023-05-13T08:24:33.016Z,96404.00
2023-05-13T08:28:40.566Z,96403.00
2023-05-13T08:32:44.095Z,96415.00
2023-05-13T08:36:47.196Z,96417.00
2023-05-13T08:40:53.165Z,96409.00
2023-05-13T08:45:01.534Z,96405.00
2023-05-13T08:49:05.217Z,96411.00
2023-05-13T08:53:08.625Z,96419.00
2023-05-13T08:57:11.838Z,96418.00
2023-05-13T09:01:16.911Z,96409.00
2023-05-13T09:09:41.836Z,96408.00
2023-05-13T09:13:45.627Z,96409.00
2023-05-13T09:17:59.285Z,96414.00
2023-05-13T09:22:02.783Z,96416.00
2023-05-13T09:26:06.398Z,96417.00
2023-05-13T09:30:13.876Z,96412.00
2023-05-13T09:34:27.342Z,96421.00
2023-05-13T09:38:32.428Z,96420.00
2023-05-13T09:42:35.653Z,96426.00
2023-05-13T09:46:41.646Z,96420.00
2023-05-13T09:50:52.100Z,96417.00
2023-05-13T09:54:57.931Z,96419.00
2023-05-13T09:59:03.207Z,96409.00
2023-05-13T10:03:07.005Z,96414.00
2023-05-13T10:07:24.477Z,96417.00
2023-05-13T10:11:31.056Z,96418.00
2023-05-13T10:15:35.242Z,96419.00
2023-05-13T10:19:40.813Z,96418.00
2023-05-13T10:23:47.231Z,96423.00
2023-05-13T10:27:52.785Z,96421.00
2023-05-13T10:31:58.710Z,96413.00
2023-05-13T10:36:18.817Z,96417.00
2023-05-13T10:40:56.704Z,96413.00
2023-05-13T10:45:00.190Z,96420.00
2023-05-13T10:49:07.092Z,96415.00
2023-05-13T10:53:20.867Z,96415.00
2023-05-13T10:57:31.495Z,96419.00
2023-05-13T11:01:37.817Z,96418.00
2023-05-13T11:05:42.777Z,96424.00
2023-05-13T11:09:53.385Z,96420.00
2023-05-13T11:14:08.320Z,96424.00
2023-05-13T11:18:17.004Z,96428.00
2023-05-13T11:22:24.538Z,96428.00
2023-05-13T11:26:42.378Z,96424.00
2023-05-13T11:30:58.785Z,96426.00
2023-05-13T11:35:04.293Z,96429.00
2023-05-13T11:39:12.488Z,96421.00
2023-05-13T11:43:21.688Z,96414.00
2023-05-13T11:47:29.317Z,96426.00
2023-05-13T11:51:38.167Z,96422.00
2023-05-13T11:55:44.260Z,96426.00
2023-05-13T11:59:54.951Z,96419.00
2023-05-13T12:04:03.749Z,96426.00
2023-05-13T12:08:09.706Z,96432.00
2023-05-13T12:12:12.876Z,96434.00
2023-05-13T12:16:20.514Z,96432.00
2023-05-13T12:20:28.222Z,96425.00
2023-05-13T12:24:34.690Z,96425.00
2023-05-13T12:28:41.139Z,96436.00
2023-05-13T12:32:47.192Z,96426.00
2023-05-13T12:36:57.834Z,96426.00
2023-05-13T12:41:14.170Z,96429.00
2023-05-13T12:45:17.706Z,96430.00
2023-05-13T12:49:21.363Z,96425.00
2023-05-13T12:53:27.726Z,96428.00
2023-05-13T12:57:32.439Z,96433.00
2023-05-13T13:01:35.767Z,96420.00
2023-05-13T13:05:39.181Z,96422.00
2023-05-13T13:09:43.663Z,96429.00
2023-05-13T13:13:49.794Z,96428.00
2023-05-13T13:17:56.041Z,96432.00
2023-05-13T13:22:02.190Z,96429.00
2023-05-13T13:26:06.877Z,96426.00
2023-05-13T13:30:13.417Z,96427.00
2023-05-13T13:34:16.464Z,96420.00
2023-05-13T13:38:19.520Z,96424.00
2023-05-13T13:42:40.284Z,96423.00
2023-05-13T13:46:49.169Z,96418.00
2023-05-13T13:50:53.005Z,96412.00
2023-05-13T13:54:58.217Z,96414.00
2023-05-13T13:59:02.984Z,96418.00
2023-05-13T14:03:08.695Z,96405.00
2023-05-13T14:07:11.819Z,96417.00
2023-05-13T14:11:17.220Z,96410.00
2023-05-13T14:15:28.944Z,96409.00
2023-05-13T14:19:33.592Z,96403.00
2023-05-13T14:23:38.626Z,96392.00
2023-05-13T14:27:42.033Z,96398.00
2023-05-13T14:31:46.529Z,96397.00
2023-05-13T14:36:00.959Z,96405.00
2023-05-13T14:40:07.117Z,96405.00
2023-05-13T14:44:10.151Z,96406.00
2023-05-13T14:48:14.700Z,96402.00
2023-05-13T14:52:18.237Z,96406.00
2023-05-13T14:56:22.589Z,96412.00
2023-05-13T15:00:27.856Z,96397.00
2023-05-13T15:04:32.346Z,96399.00
2023-05-13T15:08:38.192Z,96404.00
2023-05-13T15:12:41.463Z,96394.00
2023-05-13T15:16:48.468Z,96394.00
2023-05-13T15:20:52.978Z,96401.00
2023-05-13T15:24:56.003Z,96396.00
2023-05-13T15:28:59.038Z,96396.00
2023-05-13T15:33:03.795Z,96389.00
2023-05-13T15:37:11.385Z,96391.00
2023-05-13T15:41:15.337Z,96388.00
2023-05-13T15:45:20.383Z,96373.00
2023-05-13T15:49:27.507Z,96374.00
2023-05-13T15:53:35.357Z,96378.00
2023-05-13T15:57:42.916Z,96378.00
2023-05-13T16:01:46.830Z,96374.00
2023-05-13T16:05:53.981Z,96370.00
2023-05-13T16:09:58.426Z,96369.00
2023-05-13T16:14:02.009Z,96365.00
2023-05-13T16:18:08.921Z,96352.00
2023-05-13T16:22:36.143Z,96359.00
2023-05-13T16:26:41.911Z,96351.00
2023-05-13T16:30:46.647Z,96359.00
2023-05-13T16:34:52.835Z,96346.00
2023-05-13T16:38:58.247Z,96356.00
2023-05-13T16:43:04.097Z,96352.00
2023-05-13T16:47:08.817Z,96345.00
2023-05-13T16:51:12.243Z,96344.00
2023-05-13T16:55:17.305Z,96355.00
2023-05-13T16:59:22.337Z,96348.00
2023-05-13T17:03:26.728Z,96348.00
2023-05-13T17:07:29.990Z,96363.00
2023-05-13T17:11:38.249Z,96351.00
2023-05-13T17:15:42.669Z,96359.00
2023-05-13T17:19:47.838Z,96354.00
2023-05-13T17:23:54.279Z,96361.00
2023-05-13T17:27:57.336Z,96353.00
2023-05-13T17:32:01.776Z,96363.00
2023-05-13T17:36:07.610Z,96364.00
2023-05-13T17:40:14.275Z,96362.00
2023-05-13T17:44:17.626Z,96370.00
2023-05-13T17:48:24.720Z,96366.00
2023-05-13T17:52:32.367Z,96372.00
2023-05-13T17:56:35.384Z,96370.00
2023-05-13T18:00:40.690Z,96374.00
2023-05-13T18:04:47.511Z,96369.00
2023-05-13T18:08:50.847Z,96379.00
2023-05-13T18:12:54.157Z,96381.00
2023-05-13T18:17:02.300Z,96384.00
2023-05-13T18:21:11.805Z,96387.00
2023-05-13T18:25:18.181Z,96384.00
2023-05-13T18:29:24.464Z,96394.00
2023-05-13T18:33:30.764Z,96387.00
2023-05-13T18:37:37.144Z,96394.00
2023-05-13T18:41:40.355Z,96387.00
2023-05-13T18:45:43.550Z,96386.00
2023-05-13T18:49:46.671Z,96388.00
2023-05-13T18:53:52.275Z,96393.00
2023-05-13T18:57:55.384Z,96402.00
2023-05-13T19:02:07.467Z,96402.00
2023-05-13T19:06:13.362Z,96400.00
2023-05-13T19:10:19.893Z,96415.00
2023-05-13T19:14:23.098Z,96410.00
2023-05-13T19:18:28.276Z,96421.00
2023-05-13T19:22:31.327Z,96417.00
2023-05-13T19:26:36.918Z,96414.00
2023-05-13T19:30:41.278Z,96422.00
2023-05-13T19:34:44.489Z,96422.00
2023-05-13T19:38:49.955Z,96418.00
2023-05-13T19:42:56.574Z,96419.00
2023-05-13T19:47:00.136Z,96413.00
2023-05-13T19:51:05.220Z,96423.00
2023-05-13T19:55:15.311Z,96414.00
2023-05-13T19:59:19.849Z,96415.00
2023-05-13T20:03:24.924Z,96424.00
2023-05-13T20:07:28.259Z,96417.00
2023-05-13T20:11:31.633Z,96422.00
2023-05-13T20:15:41.152Z,96425.00
2023-05-13T20:19:44.321Z,96422.00
2023-05-13T20:23:47.312Z,96424.00
2023-05-13T20:27:53.276Z,96425.00
2023-05-13T20:31:57.712Z,96422.00
2023-05-13T20:36:00.983Z,96426.00
2023-05-13T20:40:05.850Z,96422.00
2023-05-13T20:44:08.846Z,96417.00
2023-05-13T20:48:16.644Z,96416.00
2023-05-13T20:52:19.715Z,96411.00
2023-05-13T20:56:25.788Z,96416.00
2023-05-13T21:00:29.314Z,96417.00
2023-05-13T21:04:34.471Z,96409.00
2023-05-13T21:08:41.099Z,96413.00
2023-05-13T21:12:47.762Z,96404.00
2023-05-13T21:16:55.332Z,96412.00
2023-05-13T21:21:08.532Z,96414.00
2023-05-13T21:25:11.913Z,96401.00
2023-05-13T21:29:15.833Z,96405.00
2023-05-13T21:33:20.340Z,96406.00
2023-05-13T21:37:27.191Z,96400.00
2023-05-13T21:41:33.140Z,96398.00
2023-05-13T21:45:38.055Z,96389.00
2023-05-13T21:49:45.612Z,96389.00
2023-05-13T21:53:52.805Z,96389.00
2023-05-13T21:58:03.283Z,96390.00
2023-05-13T22:02:06.866Z,96381.00
2023-05-13T22:06:12.359Z,96382.00
2023-05-13T22:10:19.225Z,96376.00
2023-05-13T22:14:22.233Z,96375.00
2023-05-13T22:18:28.625Z,96378.00
2023-05-13T22:22:33.043Z,96376.00
2023-05-13T22:26:42.150Z,96373.00
2023-05-13T22:30:49.095Z,96371.00
2023-05-13T22:34:52.139Z,96368.00
2023-05-13T22:38:55.094Z,96369.00
2023-05-13T22:42:59.614Z,96368.00
2023-05-13T22:47:04.732Z,96370.00
2023-05-13T22:51:07.974Z,96370.00
2023-05-13T22:55:11.640Z,96366.00
2023-05-13T22:59:17.982Z,96353.00
2023-05-13T23:03:21.006Z,96354.00
2023-05-13T23:07:25.128Z,96354.00
2023-05-13T23:11:28.578Z,96346.00
2023-05-13T23:15:33.290Z,96347.00
2023-05-13T23:19:38.139Z,96346.00
2023-05-13T23:23:43.474Z,96341.00
2023-05-13T23:27:48.369Z,96339.00
2023-05-13T23:31:52.826Z,96336.00
2023-05-13T23:35:56.313Z,96335.00
2023-05-13T23:39:59.678Z,96338.00
2023-05-13T23:44:05.837Z,96335.00
2023-05-13T23:48:10.875Z,96333.00
2023-05-13T23:52:13.902Z,96327.00
2023-05-13T23:56:16.925Z,96333.00
